HYI weather

San Marcos Regional Airport
San Marcos, Texas, United States

Public forecast

Using degrees Fahrenheit for public forecast. Weather courtesy of forecast.io.

METAR (pilot weather report)

Retrieved 2019/09/16 00:56 UTC (35 minutes ago):

KHYI 160056Z AUTO 11005KT 10SM CLR 30/17 A2998 RMK AO2 SLP142 T03000167

TAF (pilot weather forecast)

Forecast is more than 12 hours old.

Closest forecast is Austin Bergstrom International Airport, 20.7 nm (38.4 km) NNE. Retrieved 2019/09/15 00:33 UTC (1 day ago):

TAF KAUS 152330Z 1600/1706 11007KT P6SM SCT080 SCT250 FM160300 VRB04KT P6SM FEW060 SCT250 FM161700 07009KT P6SM SCT070 SCT250 FM170200 12007KT P6SM SCT070 SCT250